Terminal Aerodrome Forecast
Issued by NWS Twin Cities, MN

Home | Current Version | Previous Version | Text Only | Print | Product List | Glossary On
Versions: 1 2 3 4 5 6 7 8 9 10 11 12 13 14 15 16
000
FTUS43 KMPX 230500
TAFSTC
TAF
KSTC 230520Z 2306/2406 VRB03KT P6SM SKC
      TEMPO 2309/2312 5SM BR
     FM231400 17008KT P6SM SKC
     FM231800 17011G17KT P6SM BKN250
     FM232300 16008KT P6SM BKN050 OVC250
      TEMPO 2403/2406 6SM -RA OVC040=

USA.gov is the U.S. government's official web portal to all federal, state and local government web resources and services.